Time;durP1;ratioP1;P1;durP2;ratioP2;P2;SDS_P1;SDS_P2;PMS_P1;PMS_P2;Temp;Humidity;BMP_temperature;BMP_pressure;BME280_temperature;BME280_humidity;BME280_pressure;Samples;Min_cycle;Max_cycle;Signal;HPM_P1;HPM_P2
2024/05/03 00:02:19;;;;;;;11.55;11.05;;;;;;;;;;5409177;26;20016;-70
2024/05/03 00:04:45;;;;;;;11.23;10.73;;;;;;;;;;5396870;26;20435;-70
2024/05/03 00:07:10;;;;;;;11.80;11.30;;;;;;;;;;5414697;26;20007;-70
2024/05/03 00:09:35;;;;;;;11.45;10.95;;;;;;;;;;5391378;26;20003;-70
2024/05/03 00:12:01;;;;;;;11.57;11.07;;;;;;;;;;5414272;26;19995;-68
2024/05/03 00:14:26;;;;;;;11.63;11.13;;;;;;;;;;5414082;26;20004;-70
2024/05/03 00:16:52;;;;;;;11.40;10.90;;;;;;;;;;5405845;26;20014;-70
2024/05/03 00:19:17;;;;;;;11.43;10.93;;;;;;;;;;5412972;26;20006;-70
2024/05/03 00:21:43;;;;;;;11.18;10.68;;;;;;;;;;5383538;26;20074;-70
2024/05/03 00:24:08;;;;;;;11.23;10.73;;;;;;;;;;5414326;26;19996;-69
2024/05/03 00:26:34;;;;;;;11.30;10.80;;;;;;;;;;5414476;26;20008;-70
2024/05/03 00:28:59;;;;;;;11.48;10.98;;;;;;;;;;5414518;26;20035;-70
2024/05/03 00:31:25;;;;;;;11.18;10.68;;;;;;;;;;5437285;26;20445;-70
2024/05/03 00:33:50;;;;;;;11.80;11.30;;;;;;;;;;5404637;26;20007;-70
2024/05/03 00:36:15;;;;;;;11.18;10.68;;;;;;;;;;5411957;26;20023;-69
2024/05/03 00:38:41;;;;;;;11.65;11.15;;;;;;;;;;5396556;26;19996;-69
2024/05/03 00:41:06;;;;;;;11.25;10.75;;;;;;;;;;5431181;26;20452;-70
2024/05/03 00:43:32;;;;;;;11.32;10.82;;;;;;;;;;5414664;26;20001;-70
2024/05/03 00:45:58;;;;;;;11.60;11.10;;;;;;;;;;5414079;26;19995;-70
2024/05/03 00:48:25;;;;;;;11.82;11.32;;;;;;;;;;5408722;26;20015;-69
2024/05/03 00:50:50;;;;;;;11.00;10.50;;;;;;;;;;5382897;26;20073;-70
2024/05/03 00:53:16;;;;;;;11.43;10.93;;;;;;;;;;5389584;26;20488;-70
2024/05/03 00:55:42;;;;;;;11.30;10.80;;;;;;;;;;5383858;26;20460;-71
2024/05/03 00:58:08;;;;;;;11.32;10.82;;;;;;;;;;5414083;26;20004;-70
2024/05/03 01:00:35;;;;;;;11.30;10.80;;;;;;;;;;5413905;26;20004;-70
2024/05/03 01:03:00;;;;;;;11.38;10.88;;;;;;;;;;5413792;26;20010;-69
2024/05/03 01:05:27;;;;;;;11.45;10.95;;;;;;;;;;5412938;26;20010;-71
2024/05/03 01:07:53;;;;;;;11.60;11.10;;;;;;;;;;5413453;26;20011;-71
2024/05/03 01:10:18;;;;;;;11.32;10.82;;;;;;;;;;5381742;26;20480;-71
2024/05/03 01:12:44;;;;;;;11.25;10.75;;;;;;;;;;5414849;26;20006;-70
2024/05/03 01:15:09;;;;;;;11.02;10.52;;;;;;;;;;5422962;26;20002;-71
2024/05/03 01:17:35;;;;;;;11.27;10.77;;;;;;;;;;5411734;26;20441;-69
2024/05/03 01:20:00;;;;;;;11.30;10.80;;;;;;;;;;5414410;26;20348;-70
2024/05/03 01:22:26;;;;;;;11.30;10.80;;;;;;;;;;5413401;26;19992;-69
2024/05/03 01:24:53;;;;;;;11.30;10.80;;;;;;;;;;5430853;26;19992;-69
2024/05/03 01:27:19;;;;;;;11.50;11.00;;;;;;;;;;5390362;26;20082;-70
2024/05/03 01:29:44;;;;;;;11.23;10.73;;;;;;;;;;5417403;26;20011;-70
2024/05/03 01:32:09;;;;;;;11.15;10.65;;;;;;;;;;5404561;26;20015;-70
2024/05/03 01:34:35;;;;;;;10.90;10.40;;;;;;;;;;5412403;26;20047;-70
2024/05/03 01:37:00;;;;;;;11.57;11.07;;;;;;;;;;5413558;26;19999;-71
2024/05/03 01:39:25;;;;;;;11.15;10.65;;;;;;;;;;5413264;26;20128;-70
2024/05/03 01:41:51;;;;;;;11.30;10.80;;;;;;;;;;5381898;26;20496;-71
2024/05/03 01:44:17;;;;;;;11.13;10.63;;;;;;;;;;5381286;26;20011;-71
2024/05/03 01:46:42;;;;;;;10.77;10.27;;;;;;;;;;5385627;26;20006;-70
2024/05/03 01:49:08;;;;;;;10.80;10.30;;;;;;;;;;5392639;26;20509;-70
2024/05/03 01:51:33;;;;;;;11.00;10.50;;;;;;;;;;5404398;26;20017;-70
2024/05/03 01:53:58;;;;;;;11.05;10.55;;;;;;;;;;5385126;26;20578;-70
2024/05/03 01:56:24;;;;;;;11.13;10.63;;;;;;;;;;5416166;26;20003;-70
2024/05/03 01:58:49;;;;;;;11.20;10.70;;;;;;;;;;5414698;26;20004;-70
2024/05/03 02:01:15;;;;;;;11.27;10.77;;;;;;;;;;5414830;26;20004;-69
2024/05/03 02:03:40;;;;;;;11.40;10.90;;;;;;;;;;5417439;26;20066;-69
2024/05/03 02:06:07;;;;;;;10.98;10.48;;;;;;;;;;5428645;26;19996;-70
2024/05/03 02:08:33;;;;;;;11.18;10.68;;;;;;;;;;5416350;26;20035;-70
2024/05/03 02:10:58;;;;;;;11.07;10.57;;;;;;;;;;5416106;26;20011;-69
2024/05/03 02:13:24;;;;;;;11.00;10.50;;;;;;;;;;5411218;26;20011;-70
2024/05/03 02:15:49;;;;;;;11.60;11.10;;;;;;;;;;5416294;26;20441;-70
2024/05/03 02:18:15;;;;;;;10.98;10.48;;;;;;;;;;5416141;26;20029;-70
2024/05/03 02:20:40;;;;;;;10.90;10.40;;;;;;;;;;5420315;26;20628;-70
2024/05/03 02:23:05;;;;;;;11.10;10.60;;;;;;;;;;5421817;26;19996;-70
2024/05/03 02:25:31;;;;;;;11.13;10.63;;;;;;;;;;5415928;26;19987;-70
2024/05/03 02:27:56;;;;;;;11.50;11.00;;;;;;;;;;5414084;26;20068;-69
2024/05/03 02:30:21;;;;;;;11.13;10.63;;;;;;;;;;5416073;26;20175;-69
2024/05/03 02:32:47;;;;;;;11.40;10.90;;;;;;;;;;5415232;26;20023;-69
2024/05/03 02:35:12;;;;;;;11.00;10.50;;;;;;;;;;5416037;26;20452;-70
2024/05/03 02:37:38;;;;;;;10.95;10.45;;;;;;;;;;5407357;26;20003;-69
2024/05/03 02:40:03;;;;;;;10.80;10.30;;;;;;;;;;5415976;26;20002;-71
2024/05/03 02:42:28;;;;;;;11.20;10.70;;;;;;;;;;5414165;26;19995;-70
2024/05/03 02:44:54;;;;;;;11.10;10.60;;;;;;;;;;5387646;26;20015;-69
2024/05/03 02:47:19;;;;;;;11.00;10.50;;;;;;;;;;5416179;26;20475;-71
2024/05/03 02:49:45;;;;;;;11.05;10.55;;;;;;;;;;5416158;26;20460;-70
2024/05/03 02:52:11;;;;;;;11.40;10.90;;;;;;;;;;5384675;26;20008;-70
2024/05/03 02:54:38;;;;;;;11.18;10.68;;;;;;;;;;5400639;26;20348;-70
2024/05/03 02:57:04;;;;;;;11.02;10.52;;;;;;;;;;5418933;26;20448;-68
2024/05/03 02:59:29;;;;;;;10.95;10.45;;;;;;;;;;5415441;26;20014;-70
2024/05/03 03:01:55;;;;;;;11.23;10.73;;;;;;;;;;5415554;26;20004;-70
2024/05/03 03:04:20;;;;;;;11.00;10.50;;;;;;;;;;5418826;26;20007;-70
2024/05/03 03:06:45;;;;;;;10.82;10.32;;;;;;;;;;5415046;26;20011;-70
2024/05/03 03:09:11;;;;;;;10.73;10.23;;;;;;;;;;5416084;26;20466;-70
2024/05/03 03:11:37;;;;;;;10.77;10.27;;;;;;;;;;5399156;26;20007;-70
2024/05/03 03:14:03;;;;;;;10.77;10.27;;;;;;;;;;5415601;26;20077;-70
2024/05/03 03:16:32;;;;;;;10.98;10.48;;;;;;;;;;5415651;26;20024;-70
2024/05/03 03:18:57;;;;;;;11.00;10.50;;;;;;;;;;5415390;26;19996;-71
2024/05/03 03:21:23;;;;;;;11.20;10.70;;;;;;;;;;5415325;26;19995;-69
2024/05/03 03:23:48;;;;;;;11.05;10.55;;;;;;;;;;5415627;26;20010;-71
2024/05/03 03:26:14;;;;;;;11.20;10.70;;;;;;;;;;5412613;26;20010;-71
2024/05/03 03:28:39;;;;;;;11.27;10.77;;;;;;;;;;5423571;26;20660;-71
2024/05/03 03:31:04;;;;;;;11.30;10.80;;;;;;;;;;5414577;26;20014;-70
2024/05/03 03:33:30;;;;;;;11.30;10.80;;;;;;;;;;5415170;26;20460;-70
2024/05/03 03:35:55;;;;;;;11.40;10.90;;;;;;;;;;5415241;26;20072;-70
2024/05/03 03:38:21;;;;;;;11.45;10.95;;;;;;;;;;5412870;26;19996;-71
2024/05/03 03:40:47;;;;;;;11.50;11.00;;;;;;;;;;5395832;26;20533;-70
2024/05/03 03:43:13;;;;;;;11.75;11.25;;;;;;;;;;5414832;26;20448;-70
2024/05/03 03:45:38;;;;;;;11.60;11.10;;;;;;;;;;5417551;26;19992;-70
2024/05/03 03:48:04;;;;;;;11.90;11.40;;;;;;;;;;5421763;26;20353;-70
2024/05/03 03:50:29;;;;;;;11.70;11.20;;;;;;;;;;5415133;26;19996;-70
2024/05/03 03:52:55;;;;;;;11.75;11.25;;;;;;;;;;5412794;26;20002;-70
2024/05/03 03:55:20;;;;;;;12.15;11.65;;;;;;;;;;5415425;26;20006;-70
2024/05/03 03:57:45;;;;;;;11.70;11.20;;;;;;;;;;5420163;26;20059;-71
2024/05/03 04:00:13;;;;;;;11.77;11.27;;;;;;;;;;5383468;26;20018;-71
2024/05/03 04:02:38;;;;;;;11.70;11.20;;;;;;;;;;5416061;26;19994;-71
2024/05/03 04:05:04;;;;;;;11.60;11.10;;;;;;;;;;5383286;26;20007;-71
2024/05/03 04:07:30;;;;;;;11.93;11.43;;;;;;;;;;5414761;26;19999;-70
2024/05/03 04:09:55;;;;;;;11.65;11.15;;;;;;;;;;5414581;26;20456;-70
2024/05/03 04:12:20;;;;;;;11.85;11.35;;;;;;;;;;5414109;26;19991;-70
2024/05/03 04:14:46;;;;;;;11.82;11.32;;;;;;;;;;5384126;26;20004;-70
2024/05/03 04:17:11;;;;;;;11.82;11.32;;;;;;;;;;5412547;26;20072;-71
2024/05/03 04:19:37;;;;;;;11.57;11.07;;;;;;;;;;5417550;26;19992;-71
2024/05/03 04:22:02;;;;;;;11.88;11.38;;;;;;;;;;5403954;26;19987;-70
2024/05/03 04:24:28;;;;;;;11.95;11.45;;;;;;;;;;5383122;26;20033;-70
2024/05/03 04:26:53;;;;;;;12.48;11.88;;;;;;;;;;5414005;26;20470;-70
2024/05/03 04:29:18;;;;;;;12.10;11.60;;;;;;;;;;5380476;26;20011;-70
2024/05/03 04:31:45;;;;;;;12.05;11.55;;;;;;;;;;5414234;26;20415;-70
2024/05/03 04:34:10;;;;;;;12.15;11.65;;;;;;;;;;5413780;26;20489;-70
2024/05/03 04:36:37;;;;;;;12.35;11.85;;;;;;;;;;5389096;26;20132;-71
2024/05/03 04:39:03;;;;;;;12.20;11.70;;;;;;;;;;5414308;26;19995;-71
2024/05/03 04:41:28;;;;;;;12.85;12.25;;;;;;;;;;5414128;26;20005;-70
2024/05/03 04:43:53;;;;;;;12.63;12.02;;;;;;;;;;5413835;26;20030;-70
2024/05/03 04:46:19;;;;;;;12.60;12.00;;;;;;;;;;5414307;26;19999;-70
2024/05/03 04:48:45;;;;;;;12.70;12.10;;;;;;;;;;5424679;26;19996;-70
2024/05/03 04:51:11;;;;;;;12.75;12.15;;;;;;;;;;5394002;26;20352;-70
2024/05/03 04:53:40;;;;;;;12.88;12.27;;;;;;;;;;5385146;26;20011;-71
2024/05/03 04:56:13;;;;;;;12.98;12.38;;;;;;;;;;5423011;26;19995;-72
2024/05/03 04:58:38;;;;;;;12.77;12.18;;;;;;;;;;5399207;26;19999;-71
2024/05/03 05:01:04;;;;;;;12.77;12.18;;;;;;;;;;5384318;26;20501;-71
2024/05/03 05:03:29;;;;;;;12.73;12.13;;;;;;;;;;5413317;26;20072;-71
2024/05/03 05:05:55;;;;;;;12.85;12.25;;;;;;;;;;5413952;26;20010;-71
2024/05/03 05:08:20;;;;;;;12.85;12.25;;;;;;;;;;5390696;26;20003;-71
2024/05/03 05:10:45;;;;;;;12.93;12.32;;;;;;;;;;5415205;26;19996;-71
2024/05/03 05:13:11;;;;;;;12.88;12.27;;;;;;;;;;5413341;26;19995;-71
2024/05/03 05:15:36;;;;;;;12.95;12.35;;;;;;;;;;5413565;26;20010;-71
2024/05/03 05:18:01;;;;;;;13.23;12.63;;;;;;;;;;5382600;26;20474;-71
2024/05/03 05:20:28;;;;;;;12.75;12.15;;;;;;;;;;5412986;26;20011;-71
2024/05/03 05:22:53;;;;;;;12.82;12.23;;;;;;;;;;5406562;26;20003;-70
2024/05/03 05:25:19;;;;;;;13.00;12.40;;;;;;;;;;5419667;26;20010;-71
2024/05/03 05:27:44;;;;;;;13.05;12.45;;;;;;;;;;5413748;26;20452;-71
2024/05/03 05:30:10;;;;;;;12.95;12.35;;;;;;;;;;5413798;26;20000;-71
2024/05/03 05:32:35;;;;;;;13.25;12.65;;;;;;;;;;5413030;26;20024;-71
2024/05/03 05:35:01;;;;;;;12.95;12.35;;;;;;;;;;5409731;26;20003;-71
2024/05/03 05:37:26;;;;;;;12.95;12.35;;;;;;;;;;5373615;26;20040;-72
2024/05/03 05:39:52;;;;;;;12.85;12.25;;;;;;;;;;5424628;26;20019;-72
2024/05/03 05:42:17;;;;;;;12.77;12.18;;;;;;;;;;5413407;26;20010;-71
2024/05/03 05:44:43;;;;;;;12.57;11.98;;;;;;;;;;5414040;26;19995;-70
2024/05/03 05:47:09;;;;;;;12.77;12.18;;;;;;;;;;5406986;26;20007;-71
2024/05/03 05:49:34;;;;;;;12.73;12.13;;;;;;;;;;5401513;26;20008;-72
2024/05/03 05:52:00;;;;;;;12.65;12.05;;;;;;;;;;5406859;26;20422;-72
2024/05/03 05:54:28;;;;;;;12.85;12.25;;;;;;;;;;5416475;26;19999;-71
2024/05/03 05:56:56;;;;;;;12.75;12.15;;;;;;;;;;5412525;26;19995;-72
2024/05/03 05:59:21;;;;;;;12.90;12.30;;;;;;;;;;5413097;26;20076;-72
2024/05/03 06:01:49;;;;;;;12.55;11.95;;;;;;;;;;5382982;26;20015;-71
2024/05/03 06:04:16;;;;;;;12.88;12.27;;;;;;;;;;5413197;26;20012;-72
2024/05/03 06:06:42;;;;;;;12.45;11.93;;;;;;;;;;5404772;26;20019;-72
2024/05/03 06:09:08;;;;;;;12.63;12.02;;;;;;;;;;5411548;26;20000;-72
2024/05/03 06:11:33;;;;;;;12.65;12.05;;;;;;;;;;5412291;26;19999;-71
2024/05/03 06:13:59;;;;;;;12.32;11.82;;;;;;;;;;5394099;26;19999;-72
2024/05/03 06:16:24;;;;;;;12.63;12.02;;;;;;;;;;5412895;26;20008;-71
2024/05/03 06:18:52;;;;;;;12.77;12.18;;;;;;;;;;5399281;26;20064;-71
2024/05/03 06:21:17;;;;;;;12.85;12.25;;;;;;;;;;5388909;26;19996;-71
2024/05/03 06:23:42;;;;;;;12.82;12.23;;;;;;;;;;5408830;26;20115;-71
2024/05/03 06:26:08;;;;;;;12.90;12.30;;;;;;;;;;5424323;26;20339;-72
2024/05/03 06:28:33;;;;;;;12.98;12.38;;;;;;;;;;5381089;26;20065;-71
2024/05/03 06:31:00;;;;;;;12.93;12.32;;;;;;;;;;5411113;26;20547;-72
2024/05/03 06:33:26;;;;;;;13.02;12.43;;;;;;;;;;5411495;26;19999;-72
2024/05/03 06:35:51;;;;;;;13.07;12.48;;;;;;;;;;5425331;26;20621;-72
2024/05/03 06:38:19;;;;;;;12.88;12.27;;;;;;;;;;5383733;26;19996;-72
2024/05/03 06:40:45;;;;;;;12.95;12.35;;;;;;;;;;5415682;26;20010;-71
2024/05/03 06:43:12;;;;;;;12.65;12.05;;;;;;;;;;5415889;26;19995;-71
2024/05/03 06:45:37;;;;;;;13.00;12.40;;;;;;;;;;5408101;26;20015;-71
2024/05/03 06:48:03;;;;;;;13.00;12.40;;;;;;;;;;5378033;26;20621;-71
2024/05/03 06:50:28;;;;;;;12.73;12.13;;;;;;;;;;5413011;26;20007;-71
2024/05/03 06:52:54;;;;;;;12.80;12.20;;;;;;;;;;5415536;26;19995;-72
2024/05/03 06:55:19;;;;;;;12.77;12.18;;;;;;;;;;5414753;26;19991;-71
2024/05/03 06:57:45;;;;;;;12.60;12.00;;;;;;;;;;5384601;26;19995;-71
2024/05/03 07:00:10;;;;;;;12.43;11.88;;;;;;;;;;5413632;26;19992;-70
2024/05/03 07:02:35;;;;;;;12.65;12.05;;;;;;;;;;5387676;26;20018;-71
2024/05/03 07:05:01;;;;;;;12.55;11.95;;;;;;;;;;5417679;26;19988;-71
2024/05/03 07:07:26;;;;;;;12.60;12.00;;;;;;;;;;5412412;26;20461;-71
2024/05/03 07:09:52;;;;;;;13.02;12.43;;;;;;;;;;5416440;26;19992;-71
2024/05/03 07:12:17;;;;;;;12.57;12.02;;;;;;;;;;5415351;26;19999;-72
2024/05/03 07:14:42;;;;;;;12.55;11.95;;;;;;;;;;5415492;26;19991;-71
2024/05/03 07:17:08;;;;;;;12.73;12.13;;;;;;;;;;5377783;26;20340;-71
2024/05/03 07:19:33;;;;;;;12.77;12.18;;;;;;;;;;5402402;26;20000;-72
2024/05/03 07:22:01;;;;;;;12.73;12.13;;;;;;;;;;5415089;26;20000;-72
2024/05/03 07:24:26;;;;;;;12.75;12.15;;;;;;;;;;5414995;26;20013;-71
2024/05/03 07:26:52;;;;;;;12.82;12.23;;;;;;;;;;5386216;26;20003;-71
2024/05/03 07:29:19;;;;;;;12.70;12.10;;;;;;;;;;5383975;26;20012;-70
2024/05/03 07:31:44;;;;;;;12.60;12.00;;;;;;;;;;5414941;26;19999;-71
2024/05/03 07:34:10;;;;;;;12.93;12.32;;;;;;;;;;5406150;26;20015;-70
2024/05/03 07:36:39;;;;;;;12.88;12.27;;;;;;;;;;5414689;26;20467;-73
2024/05/03 07:39:06;;;;;;;12.80;12.20;;;;;;;;;;5415283;26;20011;-72
2024/05/03 07:41:31;;;;;;;12.82;12.23;;;;;;;;;;5415170;26;20004;-71
2024/05/03 07:43:56;;;;;;;12.80;12.20;;;;;;;;;;5413609;26;20000;-70
2024/05/03 07:46:22;;;;;;;12.70;12.10;;;;;;;;;;5393106;26;19999;-70
2024/05/03 07:48:48;;;;;;;12.70;12.10;;;;;;;;;;5383793;26;20463;-70
2024/05/03 07:51:13;;;;;;;12.98;12.38;;;;;;;;;;5413932;26;20011;-71
2024/05/03 07:53:40;;;;;;;12.80;12.20;;;;;;;;;;5383197;26;20014;-71
2024/05/03 07:56:07;;;;;;;12.93;12.32;;;;;;;;;;5399810;26;20011;-71
2024/05/03 07:58:33;;;;;;;12.93;12.32;;;;;;;;;;5421865;26;20003;-71
2024/05/03 08:00:58;;;;;;;12.90;12.30;;;;;;;;;;5406584;26;20065;-70
2024/05/03 08:03:23;;;;;;;12.90;12.30;;;;;;;;;;5414446;26;20026;-71
2024/05/03 08:05:49;;;;;;;12.73;12.13;;;;;;;;;;5389860;26;20076;-71
2024/05/03 08:08:14;;;;;;;12.50;11.95;;;;;;;;;;5411857;26;20333;-70
2024/05/03 08:10:40;;;;;;;12.90;12.30;;;;;;;;;;5414128;26;19992;-70
2024/05/03 08:13:05;;;;;;;12.52;11.93;;;;;;;;;;5388467;26;20028;-70
2024/05/03 08:15:31;;;;;;;12.85;12.25;;;;;;;;;;5364075;26;20456;-71
2024/05/03 08:17:57;;;;;;;12.95;12.35;;;;;;;;;;5410046;26;20011;-71
2024/05/03 08:20:22;;;;;;;12.57;11.98;;;;;;;;;;5414038;26;20047;-71
2024/05/03 08:22:48;;;;;;;12.80;12.20;;;;;;;;;;5414381;26;19995;-71
2024/05/03 08:25:13;;;;;;;12.60;12.00;;;;;;;;;;5402256;26;20445;-71
2024/05/03 08:27:38;;;;;;;12.63;12.02;;;;;;;;;;5372284;26;20047;-70
2024/05/03 08:30:04;;;;;;;12.43;11.90;;;;;;;;;;5414720;26;20533;-71
2024/05/03 08:32:30;;;;;;;12.70;12.10;;;;;;;;;;5414162;26;20003;-70
2024/05/03 08:34:55;;;;;;;12.18;11.68;;;;;;;;;;5421939;26;20002;-71
2024/05/03 08:37:20;;;;;;;12.60;12.00;;;;;;;;;;5423781;26;20036;-70
2024/05/03 08:39:46;;;;;;;12.68;12.07;;;;;;;;;;5406564;26;20475;-70
2024/05/03 08:42:18;;;;;;;12.77;12.18;;;;;;;;;;5413753;26;20455;-70
2024/05/03 08:44:45;;;;;;;12.63;12.02;;;;;;;;;;5414502;26;19999;-70
2024/05/03 08:47:11;;;;;;;12.55;11.95;;;;;;;;;;5414449;26;20000;-69
2024/05/03 08:50:00;;;;;;;12.65;12.05;;;;;;;;;;5414630;26;20257;-70
2024/05/03 08:52:28;;;;;;;12.20;11.70;;;;;;;;;;5395713;26;20011;-70
2024/05/03 08:54:54;;;;;;;12.55;11.98;;;;;;;;;;5402139;26;20003;-70
2024/05/03 08:57:20;;;;;;;12.52;11.93;;;;;;;;;;5404488;26;20460;-71
2024/05/03 08:59:45;;;;;;;12.18;11.68;;;;;;;;;;5412996;26;20493;-70
2024/05/03 09:02:14;;;;;;;12.70;12.10;;;;;;;;;;5413722;26;20478;-70
2024/05/03 09:04:39;;;;;;;12.30;11.80;;;;;;;;;;5413549;26;19999;-71
2024/05/03 09:07:07;;;;;;;12.60;12.00;;;;;;;;;;5413555;26;20491;-71
2024/05/03 09:09:38;;;;;;;12.82;12.23;;;;;;;;;;5421626;26;20189;-71
2024/05/03 09:12:05;;;;;;;12.80;12.20;;;;;;;;;;5410040;26;20000;-71
2024/05/03 09:14:31;;;;;;;12.30;11.80;;;;;;;;;;5417326;26;20030;-70
2024/05/03 09:16:57;;;;;;;12.25;11.75;;;;;;;;;;5402964;26;20000;-70
2024/05/03 09:19:22;;;;;;;12.90;12.30;;;;;;;;;;5413952;26;20003;-70
2024/05/03 09:21:48;;;;;;;12.30;11.80;;;;;;;;;;5418653;26;20017;-70
2024/05/03 09:24:13;;;;;;;12.50;11.90;;;;;;;;;;5427071;26;20357;-70
2024/05/03 09:26:45;;;;;;;12.20;11.70;;;;;;;;;;5414340;26;20003;-70
2024/05/03 09:29:14;;;;;;;12.55;11.95;;;;;;;;;;5412880;26;20032;-71
2024/05/03 09:31:39;;;;;;;12.35;11.85;;;;;;;;;;5388806;26;20003;-70
2024/05/03 09:34:05;;;;;;;12.32;11.82;;;;;;;;;;5413294;26;20471;-71
2024/05/03 09:36:30;;;;;;;12.30;11.80;;;;;;;;;;5412761;26;19999;-70
2024/05/03 09:38:56;;;;;;;12.45;11.93;;;;;;;;;;5405355;26;20004;-70
2024/05/03 09:41:23;;;;;;;12.57;11.98;;;;;;;;;;5413405;26;20004;-71
2024/05/03 09:43:49;;;;;;;12.30;11.80;;;;;;;;;;5393172;26;20034;-70
2024/05/03 09:46:15;;;;;;;12.27;11.77;;;;;;;;;;5411000;26;20008;-71
2024/05/03 09:48:44;;;;;;;12.60;12.00;;;;;;;;;;5411368;26;20495;-71
2024/05/03 09:51:10;;;;;;;12.30;11.80;;;;;;;;;;5381963;26;20487;-71
2024/05/03 09:53:35;;;;;;;12.20;11.70;;;;;;;;;;5404346;26;20004;-71
2024/05/03 09:56:08;;;;;;;12.10;11.60;;;;;;;;;;5424403;26;20014;-73
2024/05/03 09:58:36;;;;;;;12.18;11.68;;;;;;;;;;5391185;26;20007;-71
2024/05/03 10:01:03;;;;;;;12.27;11.77;;;;;;;;;;5413848;26;20012;-71
2024/05/03 10:03:28;;;;;;;12.30;11.80;;;;;;;;;;5413015;26;20456;-69
2024/05/03 10:05:56;;;;;;;12.20;11.70;;;;;;;;;;5416470;26;20010;-72
2024/05/03 10:08:23;;;;;;;12.32;11.82;;;;;;;;;;5412001;26;20008;-71
2024/05/03 10:10:48;;;;;;;12.65;12.05;;;;;;;;;;5415672;26;20030;-71
2024/05/03 10:13:14;;;;;;;12.40;11.88;;;;;;;;;;5410767;26;20460;-72
2024/05/03 10:15:41;;;;;;;12.20;11.70;;;;;;;;;;5385263;26;19999;-71
2024/05/03 10:18:06;;;;;;;12.55;11.95;;;;;;;;;;5439899;26;20031;-69
2024/05/03 10:20:32;;;;;;;12.20;11.70;;;;;;;;;;5420548;26;20010;-71
2024/05/03 10:23:01;;;;;;;12.38;11.88;;;;;;;;;;5384249;26;20623;-73
2024/05/03 10:25:27;;;;;;;12.25;11.75;;;;;;;;;;5415205;26;20536;-70
2024/05/03 10:28:06;;;;;;;12.35;11.85;;;;;;;;;;5415569;26;20000;-71
2024/05/03 10:30:32;;;;;;;12.27;11.77;;;;;;;;;;5416041;26;20362;-71
2024/05/03 10:32:58;;;;;;;12.48;11.88;;;;;;;;;;5415805;26;20037;-70
2024/05/03 10:35:24;;;;;;;12.20;11.70;;;;;;;;;;5414300;26;20006;-70
2024/05/03 10:38:02;;;;;;;12.02;11.52;;;;;;;;;;5413164;26;20014;-69
2024/05/03 10:40:28;;;;;;;12.27;11.77;;;;;;;;;;5415557;26;20012;-70
2024/05/03 10:42:57;;;;;;;12.18;11.68;;;;;;;;;;5391709;26;20019;-71
2024/05/03 10:45:23;;;;;;;12.35;11.85;;;;;;;;;;5415884;26;20440;-70
2024/05/03 10:47:48;;;;;;;12.50;11.90;;;;;;;;;;5415647;26;20018;-71
2024/05/03 10:50:13;;;;;;;12.18;11.68;;;;;;;;;;5407182;26;20452;-69
2024/05/03 10:52:40;;;;;;;12.35;11.82;;;;;;;;;;5419688;26;19995;-70
2024/05/03 10:55:05;;;;;;;12.55;11.95;;;;;;;;;;5394056;26;20003;-70
2024/05/03 10:57:31;;;;;;;12.32;11.82;;;;;;;;;;5384005;26;20004;-71
2024/05/03 10:59:56;;;;;;;12.18;11.68;;;;;;;;;;5414625;26;20388;-71
2024/05/03 11:02:23;;;;;;;12.25;11.75;;;;;;;;;;5422499;26;20068;-70
2024/05/03 11:04:48;;;;;;;12.05;11.55;;;;;;;;;;5414831;26;20018;-71
2024/05/03 11:07:15;;;;;;;12.30;11.80;;;;;;;;;;5415407;26;19999;-70
2024/05/03 11:09:41;;;;;;;12.18;11.68;;;;;;;;;;5415198;26;20004;-71
2024/05/03 11:12:07;;;;;;;12.20;11.70;;;;;;;;;;5415342;26;20015;-70
2024/05/03 11:14:33;;;;;;;12.27;11.77;;;;;;;;;;5384236;26;20000;-70
2024/05/03 11:16:59;;;;;;;12.07;11.57;;;;;;;;;;5383675;26;20000;-70
2024/05/03 11:19:24;;;;;;;12.38;11.85;;;;;;;;;;5377423;26;20032;-70
2024/05/03 11:21:50;;;;;;;12.25;11.75;;;;;;;;;;5412525;26;20003;-70
2024/05/03 11:24:30;;;;;;;12.18;11.68;;;;;;;;;;5384171;26;19999;-70
2024/05/03 11:26:59;;;;;;;12.23;11.73;;;;;;;;;;5414821;26;20008;-70
2024/05/03 11:29:25;;;;;;;12.30;11.80;;;;;;;;;;5383696;26;20007;-71
2024/05/03 11:31:50;;;;;;;12.15;11.65;;;;;;;;;;5417473;26;20015;-71
2024/05/03 11:34:20;;;;;;;12.02;11.52;;;;;;;;;;5406798;26;20000;-70
2024/05/03 11:36:49;;;;;;;12.43;11.90;;;;;;;;;;5396422;26;20000;-71
2024/05/03 11:39:14;;;;;;;12.10;11.60;;;;;;;;;;5409753;26;20019;-69
2024/05/03 11:41:40;;;;;;;12.35;11.82;;;;;;;;;;5416599;26;20000;-70
2024/05/03 11:44:07;;;;;;;12.27;11.77;;;;;;;;;;5415326;26;19999;-70
2024/05/03 11:46:33;;;;;;;12.30;11.80;;;;;;;;;;5383627;26;20003;-70
2024/05/03 11:49:17;;;;;;;12.15;11.65;;;;;;;;;;5414754;26;20000;-70
2024/05/03 11:51:45;;;;;;;12.05;11.55;;;;;;;;;;5414353;26;20011;-71
2024/05/03 11:54:11;;;;;;;12.15;11.65;;;;;;;;;;5415223;26;20049;-70
2024/05/03 11:56:37;;;;;;;12.30;11.80;;;;;;;;;;5383480;26;20011;-71
2024/05/03 11:59:02;;;;;;;12.18;11.68;;;;;;;;;;5403458;26;20003;-71
2024/05/03 12:01:27;;;;;;;12.05;11.55;;;;;;;;;;5406939;26;19995;-71
2024/05/03 12:03:53;;;;;;;12.10;11.60;;;;;;;;;;5414131;26;20022;-70
2024/05/03 12:06:19;;;;;;;12.27;11.77;;;;;;;;;;5383266;26;20003;-71
2024/05/03 12:08:45;;;;;;;12.30;11.80;;;;;;;;;;5414309;26;20493;-70
2024/05/03 12:11:11;;;;;;;12.20;11.70;;;;;;;;;;5414485;26;20460;-70
2024/05/03 12:13:36;;;;;;;12.18;11.68;;;;;;;;;;5414420;26;20014;-70
2024/05/03 12:16:02;;;;;;;12.10;11.60;;;;;;;;;;5401738;26;20499;-70
2024/05/03 12:18:27;;;;;;;12.23;11.73;;;;;;;;;;5418570;26;20000;-70
2024/05/03 12:20:53;;;;;;;12.48;11.93;;;;;;;;;;5401905;26;20010;-70
2024/05/03 12:23:18;;;;;;;12.15;11.65;;;;;;;;;;5430542;26;20524;-70
2024/05/03 12:25:43;;;;;;;12.10;11.60;;;;;;;;;;5382765;26;20010;-70
2024/05/03 12:28:09;;;;;;;12.30;11.80;;;;;;;;;;5413732;26;20381;-71
2024/05/03 12:30:34;;;;;;;12.30;11.80;;;;;;;;;;5413213;26;20573;-70
2024/05/03 12:33:00;;;;;;;12.30;11.80;;;;;;;;;;5421323;26;19999;-71
2024/05/03 12:35:25;;;;;;;12.60;12.00;;;;;;;;;;5382960;26;20068;-70
2024/05/03 12:37:51;;;;;;;12.10;11.60;;;;;;;;;;5414009;26;19991;-71
2024/05/03 12:40:16;;;;;;;12.32;11.82;;;;;;;;;;5414270;26;20403;-71
2024/05/03 12:42:42;;;;;;;12.10;11.60;;;;;;;;;;5396392;26;20028;-71
2024/05/03 12:45:08;;;;;;;12.13;11.63;;;;;;;;;;5414346;26;20010;-71
2024/05/03 12:47:36;;;;;;;12.27;11.77;;;;;;;;;;5413900;26;19999;-71
2024/05/03 12:50:02;;;;;;;12.13;11.63;;;;;;;;;;5415964;26;20019;-70
2024/05/03 12:52:27;;;;;;;12.23;11.73;;;;;;;;;;5419818;26;20007;-71
2024/05/03 12:54:54;;;;;;;12.40;11.88;;;;;;;;;;5414385;26;20002;-71
2024/05/03 12:57:19;;;;;;;12.52;11.95;;;;;;;;;;5412503;26;20015;-71
2024/05/03 12:59:45;;;;;;;12.15;11.65;;;;;;;;;;5413706;26;20023;-71
2024/05/03 13:02:11;;;;;;;12.07;11.57;;;;;;;;;;5413947;26;20018;-70
2024/05/03 13:04:36;;;;;;;12.25;11.75;;;;;;;;;;5414144;26;20580;-70
2024/05/03 13:07:02;;;;;;;12.18;11.68;;;;;;;;;;5415182;26;20042;-71
2024/05/03 13:09:37;;;;;;;12.10;11.60;;;;;;;;;;5414351;26;20007;-71
2024/05/03 13:12:05;;;;;;;12.00;11.50;;;;;;;;;;5409339;26;20011;-70
2024/05/03 13:14:31;;;;;;;12.23;11.73;;;;;;;;;;5414105;26;19995;-70
2024/05/03 13:16:57;;;;;;;12.13;11.63;;;;;;;;;;5414284;26;20329;-70
2024/05/03 13:19:22;;;;;;;12.13;11.63;;;;;;;;;;5403595;26;20010;-71
2024/05/03 13:21:48;;;;;;;12.05;11.55;;;;;;;;;;5431413;26;20455;-70
2024/05/03 13:24:13;;;;;;;11.93;11.43;;;;;;;;;;5409833;26;20334;-71
2024/05/03 13:26:39;;;;;;;12.02;11.52;;;;;;;;;;5393431;26;20045;-71
2024/05/03 13:29:04;;;;;;;12.07;11.57;;;;;;;;;;5410136;26;19991;-72
2024/05/03 13:31:30;;;;;;;12.00;11.50;;;;;;;;;;5395103;26;20039;-71
2024/05/03 13:33:55;;;;;;;12.20;11.70;;;;;;;;;;5412437;26;20472;-71
2024/05/03 13:36:21;;;;;;;12.07;11.57;;;;;;;;;;5411411;26;20000;-70
2024/05/03 13:38:46;;;;;;;12.30;11.80;;;;;;;;;;5402103;26;20010;-70
2024/05/03 13:41:12;;;;;;;12.18;11.68;;;;;;;;;;5361181;26;19995;-71
2024/05/03 13:43:37;;;;;;;12.10;11.60;;;;;;;;;;5416075;26;19999;-71
2024/05/03 13:46:03;;;;;;;12.10;11.60;;;;;;;;;;5418125;26;20541;-70
2024/05/03 13:48:31;;;;;;;12.00;11.50;;;;;;;;;;5415987;26;19996;-70
2024/05/03 13:50:59;;;;;;;11.77;11.27;;;;;;;;;;5414588;26;20004;-71
2024/05/03 13:53:25;;;;;;;12.10;11.60;;;;;;;;;;5397780;26;20004;-71
2024/05/03 13:55:51;;;;;;;11.95;11.45;;;;;;;;;;5371504;26;20026;-71
2024/05/03 13:58:16;;;;;;;12.18;11.68;;;;;;;;;;5417701;26;20015;-71
2024/05/03 14:00:42;;;;;;;12.07;11.57;;;;;;;;;;5421397;26;20075;-71
2024/05/03 14:03:07;;;;;;;12.05;11.55;;;;;;;;;;5435272;26;20007;-71
2024/05/03 14:05:33;;;;;;;12.07;11.57;;;;;;;;;;5416323;26;20464;-72
2024/05/03 14:07:58;;;;;;;11.98;11.48;;;;;;;;;;5384354;26;19992;-71
2024/05/03 14:10:24;;;;;;;11.98;11.48;;;;;;;;;;5382617;26;20000;-71